Terminal Aerodrome Forecast
Issued by NWS Atlanta, GA

Home | Current Version | Previous Version | Text Only | Print | Product List | Glossary On
Versions: 1 2 3 4 5 6 7 8 9 10 11 12 13 14 15 16 17 18 19 20 21 22 23 24 25 26 27 28 29 30 31 32 33 34 35 36
381
FTUS42 KFFC 231940 AAA
TAFATL
TAF AMD
KATL 231940Z 2320/2424 29010KT 5SM SHRA OVC012
     FM232200 26007KT P6SM VCSH OVC015
     FM240100 29007KT P6SM OVC015
     FM240400 30006KT 6SM -DZ OVC012
     FM240800 35005KT 5SM -DZ OVC007
     FM241400 34007KT P6SM BKN012=

USA.gov is the U.S. government's official web portal to all federal, state and local government web resources and services.